Weather observations for the past three days for
Eastern Oregon Regional Airport at Pendleton
Imperial (Metric)
Date Time (pdt) Wind (mph) Vis. (mi.) Weather Sky Cond. Temperature (ºF) Relative Humidity Wind Chill (°F) Heat Index (°F) Pressure Precipitation (in)
Air Dwpt 6 hour altimeter (in) sea level (mb) 1 hr 3 hr 6 hr
Max. Min.
04 09:53 W 7 10.00 Fair CLR 70 42.1 37% 29.81 1008.1
04 08:53 Calm 10.00 Fair CLR 66.9 44.1 44% 29.81 1008.1
04 07:53 S 8 10.00 Fair CLR 60.1 42.1 52% 29.8 1007.8
04 06:53 SE 9 10.00 Fair CLR 55.9 42.1 60% 29.8 1007.6
04 05:53 SE 12 10.00 Fair CLR 52 41 66% 29.79 1007.3
04 04:53 SE 9 10.00 Fair CLR 50 41 60.1 48.9 71% 47 29.79 1007.5
04 03:53 SE 12 10.00 Fair CLR 54 41 62% 29.79 1007.4
04 02:53 SE 9 10.00 Fair CLR 54 42.1 64% 29.8 1007.6
04 01:53 S 14 10.00 Fair CLR 55 43 64% 29.79 1007.4
04 00:53 SE 12 7.00 Fair CLR 55 44.1 67% 29.79 1007.6
03 23:53 SE 10 10.00 Fair CLR 57.9 45 62% 29.8 1007.6
03 22:53 SE 9 10.00 Fair CLR 60.1 45 82 57.9 58% 29.8 1007.8
03 21:53 SE 8 10.00 Fair CLR 63 43 48% 29.8 1007.9
03 20:53 NE 6 10.00 Fair CLR 64.9 41 42% 29.79 1007.6
03 19:53 N 6 10.00 Fair CLR 70 46 42% 29.79 1007.4
03 18:53 N 8 10.00 Fair CLR 78.1 41 27% 78 29.8 1007.8
03 17:53 N 7 10.00 Fair CLR 80.1 39 23% 79 29.82 1008.4
03 16:53 N 9 10.00 Fair CLR 82 39 82.9 73.9 22% 80 29.83 1008.8
03 15:53 NE 12 G 16 10.00 Fair CLR 82 37.9 21% 80 29.84 1009.3
03 14:53 N 5 10.00 Fair CLR 82 36 19% 80 29.86 1010.0
03 13:53 SW 5 10.00 Fair CLR 82 42.1 24% 80 29.88 1010.5
03 12:53 Vrbl 7 10.00 Fair CLR 79 39.9 25% 78 29.9 1011.3
03 11:53 Vrbl 3 10.00 Fair CLR 75.9 42.1 30% 77 29.93 1012.1
03 10:53 N 7 10.00 Fair CLR 73.9 44.1 73.9 48.9 34% 29.94 1012.6
03 09:53 Vrbl 6 10.00 Fair CLR 70 46 42% 29.95 1012.7
03 08:53 Calm 10.00 Fair CLR 64.9 44.1 47% 29.95 1013.0
03 07:53 SE 6 10.00 Fair CLR 61 44.1 54% 29.94 1012.7
03 06:53 E 6 10.00 Fair CLR 55 43 64% 29.94 1012.7
03 05:53 SE 8 10.00 Fair CLR 52 43 72% 29.93 1012.2
03 04:53 E 8 10.00 Fair CLR 51.1 44.1 60.1 50 77% 29.94 1012.5
03 03:53 SE 7 10.00 Fair CLR 52 44.1 75% 29.94 1012.4
03 02:53 S 7 10.00 Fair CLR 51.1 46 83% 29.93 1012.3
03 01:53 SE 7 10.00 Fair CLR 57 46.9 69% 29.93 1012.1
03 00:53 SE 9 10.00 Fair CLR 57 48.9 74% 29.92 1011.9
02 23:53 SE 7 10.00 Fair CLR 57.9 50 75% 29.91 1011.7
02 22:53 SE 5 10.00 Fair CLR 60.1 48.9 82 60.1 67% 29.91 1011.4
02 21:53 SE 6 10.00 Fair CLR 63 46.9 56% 29.91 1011.5
02 20:53 SE 8 10.00 Fair CLR 63 46 54% 29.89 1010.9
02 19:53 NE 10 10.00 Fair CLR 68 48.9 51% 29.86 1009.9
02 18:53 N 9 10.00 Fair CLR 77 46.9 35% 78 29.86 1009.8
02 17:53 NE 16 10.00 Fair CLR 82 43 25% 80 29.87 1010.0
02 16:53 N 8 10.00 Fair CLR 81 46 81 70 29% 80 29.88 1010.4
02 15:53 N 7 10.00 Fair CLR 79 42.1 27% 78 29.89 1011.0
02 14:53 N 8 10.00 Fair CLR 77 45 32% 78 29.91 1011.7
02 13:53 N 10 10.00 Fair CLR 77 46 33% 78 29.93 1012.2
02 12:53 W 12 10.00 Fair CLR 73.9 48.9 41% 29.94 1012.7
02 11:53 W 15 10.00 Fair CLR 71.1 46 41% 29.95 1013.0
02 10:53 NW 12 10.00 Fair CLR 71.1 44.1 71.1 53.1 38% 29.95 1013.0
02 09:53 W 9 10.00 Fair CLR 69.1 45 42% 29.95 1012.9
02 08:53 NW 9 10.00 Fair CLR 64 45 50% 29.95 1013.0
02 07:53 NW 7 10.00 Fair CLR 61 44.1 54% 29.94 1012.7
02 06:53 Calm 10.00 Fair CLR 57 37.9 49% 29.93 1012.3
02 05:53 NE 5 10.00 Fair CLR 55.9 37 49% 29.92 1011.8
02 04:53 NE 7 10.00 Fair CLR 55 37 61 54 51% 29.91 1011.7
02 03:53 NE 3 10.00 Fair CLR 57 36 45% 29.92 1011.6
02 02:53 E 3 10.00 Fair CLR 55.9 37.9 51% 29.91 1011.6
02 01:53 E 3 10.00 Fair CLR 57 37.9 49% 29.92 1011.7
02 00:53 E 8 10.00 Fair CLR 55.9 39 53% 29.92 1011.8
01 23:53 E 7 10.00 Fair CLR 57.9 37.9 48% 29.92 1011.8
01 22:53 E 10 10.00 Fair CLR 57.9 43 79 57.9 58% 29.92 1011.8
01 21:53 E 12 10.00 Fair CLR 61 44.1 54% 29.92 1011.8
01 20:53 E 13 10.00 Fair CLR 64 44.1 48% 29.91 1011.8
01 19:53 NE 14 10.00 Fair CLR 66.9 43 42% 29.91 1011.7
01 18:53 N 8 10.00 Fair CLR 71.1 46.9 42% 29.91 1012.0
01 17:53 NE 15 10.00 Fair CLR 75 43 32% 77 29.92 1012.2
01 16:53 NE 14 10.00 Fair CLR 79 41 80.1 73 26% 78 29.93 1012.3
01 15:53 NE 13 10.00 Fair CLR 80.1 41 25% 79 29.94 1012.9
01 14:53 NE 10 10.00 Fair CLR 78.1 39.9 26% 78 29.97 1013.9
01 13:53 W 9 10.00 Fair CLR 80.1 37 21% 79 29.99 1014.3
01 12:53 Vrbl 3 10.00 Fair CLR 78.1 37.9 24% 78 30 1014.9
01 11:53 Calm 10.00 Fair CLR 75.9 36 23% 77 30.02 1015.5
01 10:53 N 5 10.00 Fair CLR 73.9 39 73.9 44.1 28% 30.03 1016.0
Date Time (pdt) Wind (mph) Vis. (mi.) Weather Sky Cond. Air Dwpt Max. Min. Relative Humidity Wind Chill (°F) Heat Index (°F) altimeter (in) sea level (mb) 1 hr 3 hr 6 hr
6 hour
Temperature (ºF) Pressure Precipitation (in)